Time;durP1;ratioP1;P1;durP2;ratioP2;P2;SDS_P1;SDS_P2;PMS_P1;PMS_P2;Temp;Humidity;BMP_temperature;BMP_pressure;BME280_temperature;BME280_humidity;BME280_pressure;Samples;Min_cycle;Max_cycle;Signal;HPM_P1;HPM_P2
2022/09/08 00:02:09;;;;;;;;;;;;;;;-142.75;100.00;75954.22;4994025;28;19984;-70
2022/09/08 00:04:35;;;;;;;;;;;;;;;-142.75;100.00;75948.31;4994118;28;19920;-70
2022/09/08 00:07:01;;;;;;;;;;;;;;;-142.75;100.00;75926.66;4993539;28;20356;-70
2022/09/08 00:09:28;;;;;;;;;;;;;;;-142.75;100.00;75908.94;4994111;28;19914;-70
2022/09/08 00:11:54;;;;;;;;;;;;;;;-142.75;100.00;75903.03;4992877;28;19996;-70
2022/09/08 00:14:20;;;;;;;;;;;;;;;-142.75;100.00;75897.13;4993899;28;19929;-70
2022/09/08 00:16:45;;;;;;;;;;;;;;;-142.75;100.00;75887.28;4993361;28;19919;-70
2022/09/08 00:19:11;;;;;;;;;;;;;;;-142.75;100.00;75873.50;4993662;28;19914;-70
2022/09/08 00:21:36;;;;;;;;;;;;;;;-142.75;100.00;75875.47;4993882;28;19913;-70
2022/09/08 00:24:01;;;;;;;;;;;;;;;-142.75;100.00;75877.44;4993878;28;19913;-71
2022/09/08 00:26:27;;;;;;;;;;;;;;;-142.75;100.00;75873.50;4993805;28;20658;-70
2022/09/08 00:28:52;;;;;;;;;;;;;;;-142.75;100.00;75873.50;4991913;28;20029;-70
2022/09/08 00:31:17;;;;;;;;;;;;;;;-142.75;100.00;75875.47;4993831;28;20447;-70
2022/09/08 00:33:42;;;;;;;;;;;;;;;-142.75;100.00;75881.38;4994216;28;19920;-70
2022/09/08 00:36:12;;;;;;;;;;;;;;;-142.75;100.00;75899.09;5008952;28;20000;-70
2022/09/08 00:38:37;;;;;;;;;;;;;;;-142.75;100.00;75912.88;4993352;28;19988;-70
2022/09/08 00:41:09;;;;;;;;;;;;;;;-142.75;100.00;75912.88;4993229;28;20317;-70
2022/09/08 00:43:41;;;;;;;;;;;;;;;-142.75;100.00;75924.69;5008887;28;20360;-70
2022/09/08 00:46:12;;;;;;;;;;;;;;;-142.75;100.00;75936.50;4993394;28;19936;-70
2022/09/08 00:48:41;;;;;;;;;;;;;;;-142.75;100.00;75936.50;4993095;28;19924;-70
2022/09/08 00:51:07;;;;;;;;;;;;;;;-142.75;100.00;75930.59;4994924;28;19914;-70
2022/09/08 00:53:34;;;;;;;;;;;;;;;-142.75;100.00;75930.59;4997325;28;20406;-70
2022/09/08 00:56:05;;;;;;;;;;;;;;;-142.75;100.00;75932.56;5012859;28;19976;-70
2022/09/08 00:58:33;;;;;;;;;;;;;;;-142.75;100.00;75938.47;4995458;28;20001;-70
2022/09/08 01:01:00;;;;;;;;;;;;;;;-142.75;100.00;75944.38;4997398;28;19913;-70
2022/09/08 01:03:25;;;;;;;;;;;;;;;-142.75;100.00;75944.38;4997478;28;19917;-70
2022/09/08 01:05:50;;;;;;;;;;;;;;;-142.75;100.00;75944.38;4997139;28;19914;-70
2022/09/08 01:14:08;;;;;;;;;;;;;;;-142.75;100.00;75956.19;4996862;28;19920;-71
2022/09/08 01:16:42;;;;;;;;;;;;;;;-142.75;100.00;75956.19;4996840;28;19997;-70
2022/09/08 01:19:28;;;;;;;;;;;;;;;-142.75;100.00;75966.00;4997038;28;20012;-70
2022/09/08 01:21:54;;;;;;;;;;;;;;;-142.75;100.00;75964.03;4996786;28;19929;-70
2022/09/08 01:24:29;;;;;;;;;;;;;;;-142.75;100.00;75952.25;4997141;28;19913;-70
2022/09/08 01:27:13;;;;;;;;;;;;;;;-142.75;100.00;75948.31;4996825;28;19977;-70
2022/09/08 01:29:43;;;;;;;;;;;;;;;-142.75;100.00;75942.41;4997111;28;20454;-70
2022/09/08 01:32:09;;;;;;;;;;;;;;;-142.75;100.00;75936.50;4997064;28;19960;-70
2022/09/08 01:34:39;;;;;;;;;;;;;;;-142.75;100.00;75940.44;4996891;28;19925;-70
2022/09/08 01:37:04;;;;;;;;;;;;;;;-142.75;100.00;75944.38;5011369;28;20358;-70
2022/09/08 01:39:29;;;;;;;;;;;;;;;-142.75;100.00;75944.38;4996443;28;20017;-70
2022/09/08 01:41:54;;;;;;;;;;;;;;;-142.75;100.00;75946.34;4995525;28;19968;-70
2022/09/08 01:44:20;;;;;;;;;;;;;;;-142.75;100.00;75942.41;5012063;28;19918;-70
2022/09/08 01:46:45;;;;;;;;;;;;;;;-142.75;100.00;75946.34;4996523;28;20431;-70
2022/09/08 01:49:10;;;;;;;;;;;;;;;-142.75;100.00;75944.38;5011353;28;20048;-70
2022/09/08 01:51:36;;;;;;;;;;;;;;;-142.75;100.00;75954.22;4996620;28;20367;-70
2022/09/08 01:54:01;;;;;;;;;;;;;;;-142.75;100.00;75952.25;4996384;28;19913;-70
2022/09/08 01:56:26;;;;;;;;;;;;;;;-142.75;100.00;75950.28;5011163;28;20346;-70
2022/09/08 01:58:51;;;;;;;;;;;;;;;-142.75;100.00;75956.19;4996054;28;20016;-70
2022/09/08 02:01:16;;;;;;;;;;;;;;;-142.75;100.00;75954.22;4995453;28;19914;-70
2022/09/08 02:03:42;;;;;;;;;;;;;;;-142.75;100.00;75960.13;5011331;28;20363;-70
2022/09/08 02:06:07;;;;;;;;;;;;;;;-142.75;100.00;75948.31;4996843;28;19921;-70
2022/09/08 02:08:32;;;;;;;;;;;;;;;-142.75;100.00;75926.66;4996785;28;20422;-70
2022/09/08 02:10:59;;;;;;;;;;;;;;;-142.75;100.00;75912.88;4996112;28;19914;-70
2022/09/08 02:13:24;;;;;;;;;;;;;;;-142.75;100.00;75889.25;5012202;28;20422;-70
2022/09/08 02:15:50;;;;;;;;;;;;;;;-142.75;100.00;75877.44;4996657;28;19918;-70
2022/09/08 02:18:15;;;;;;;;;;;;;;;-142.75;100.00;75865.63;5011662;28;20339;-70
2022/09/08 02:20:41;;;;;;;;;;;;;;;-142.75;100.00;75853.84;4996581;28;19913;-70
2022/09/08 02:23:06;;;;;;;;;;;;;;;-142.75;100.00;75847.94;4995072;28;20391;-70
2022/09/08 02:25:31;;;;;;;;;;;;;;;-142.75;100.00;75838.09;4996048;28;20371;-70
2022/09/08 02:27:56;;;;;;;;;;;;;;;-142.75;100.00;75842.03;4995414;28;19980;-70
2022/09/08 02:30:22;;;;;;;;;;;;;;;-142.75;100.00;75853.84;4995481;28;20284;-70
2022/09/08 02:32:49;;;;;;;;;;;;;;;-142.75;100.00;75853.84;4995975;28;19914;-71
2022/09/08 02:35:14;;;;;;;;;;;;;;;-142.75;100.00;75853.84;4995877;28;19917;-71
2022/09/08 02:37:40;;;;;;;;;;;;;;;-142.75;100.00;75865.63;5010301;28;19945;-71
2022/09/08 02:40:05;;;;;;;;;;;;;;;-142.75;100.00;75873.50;4994906;28;19920;-71
2022/09/08 02:42:31;;;;;;;;;;;;;;;-142.75;100.00;75891.22;4994957;28;19918;-70
2022/09/08 02:44:57;;;;;;;;;;;;;;;-142.75;100.00;75905.00;4994941;28;19913;-70
2022/09/08 02:47:22;;;;;;;;;;;;;;;-142.75;100.00;75916.81;4993051;28;19917;-70
2022/09/08 02:49:47;;;;;;;;;;;;;;;-142.75;100.00;75928.63;5010759;28;19913;-70
2022/09/08 02:52:12;;;;;;;;;;;;;;;-142.75;100.00;75934.53;4996536;28;19921;-70
2022/09/08 02:54:38;;;;;;;;;;;;;;;-142.75;100.00;75936.50;4995481;28;19969;-70
2022/09/08 02:57:04;;;;;;;;;;;;;;;-142.75;100.00;75938.47;4995988;28;19920;-72
2022/09/08 02:59:29;;;;;;;;;;;;;;;-142.75;100.00;75948.31;5010983;28;19917;-71
2022/09/08 03:01:54;;;;;;;;;;;;;;;-142.75;100.00;75936.50;4996124;28;20604;-71
2022/09/08 03:04:19;;;;;;;;;;;;;;;-142.75;100.00;75932.56;4994502;28;19956;-71
2022/09/08 03:06:44;;;;;;;;;;;;;;;-142.75;100.00;75934.53;4995488;28;19913;-71
2022/09/08 03:09:10;;;;;;;;;;;;;;;-142.75;100.00;75936.50;4996521;28;20294;-71
2022/09/08 03:11:35;;;;;;;;;;;;;;;-142.75;100.00;75952.25;4996016;28;20013;-71
2022/09/08 03:14:00;;;;;;;;;;;;;;;-142.75;100.00;75952.25;4996166;28;19914;-71
2022/09/08 03:16:27;;;;;;;;;;;;;;;-142.75;100.00;75964.03;4996547;28;19960;-70
2022/09/08 03:18:52;;;;;;;;;;;;;;;-142.75;100.00;75967.97;4995749;28;19914;-71
2022/09/08 03:21:17;;;;;;;;;;;;;;;-142.75;100.00;75966.00;5010834;28;20017;-71
2022/09/08 03:23:42;;;;;;;;;;;;;;;-142.75;100.00;75964.03;4996025;28;20379;-71
2022/09/08 03:26:15;;;;;;;;;;;;;;;-142.75;100.00;75969.94;4995822;28;19917;-71
2022/09/08 03:28:41;;;;;;;;;;;;;;;-142.75;100.00;75979.78;4996018;28;20411;-71
2022/09/08 03:31:08;;;;;;;;;;;;;;;-142.75;100.00;75977.81;4996167;28;19913;-71
2022/09/08 03:33:33;;;;;;;;;;;;;;;-142.75;100.00;75973.88;4995969;28;19920;-71
2022/09/08 03:36:00;;;;;;;;;;;;;;;-142.75;100.00;75981.75;4995190;28;20302;-71
2022/09/08 03:38:25;;;;;;;;;;;;;;;-142.75;100.00;75979.78;4995423;28;20001;-70
2022/09/08 03:40:50;;;;;;;;;;;;;;;-142.75;100.00;75981.75;5011039;28;19960;-71
2022/09/08 03:43:16;;;;;;;;;;;;;;;-142.75;100.00;75977.81;4995454;28;19936;-71
2022/09/08 03:45:45;;;;;;;;;;;;;;;-142.75;100.00;75977.81;4994269;28;19914;-71
2022/09/08 03:48:10;;;;;;;;;;;;;;;-142.75;100.00;75981.75;4995174;28;19918;-71
2022/09/08 03:50:36;;;;;;;;;;;;;;;-142.75;100.00;75979.78;4996088;28;19921;-70
2022/09/08 03:53:01;;;;;;;;;;;;;;;-142.75;100.00;75987.66;4995216;28;19914;-71
2022/09/08 03:55:26;;;;;;;;;;;;;;;-142.75;100.00;75989.63;4995681;28;19937;-71
2022/09/08 03:57:51;;;;;;;;;;;;;;;-142.75;100.00;75999.47;4994338;28;19925;-71
2022/09/08 04:00:16;;;;;;;;;;;;;;;-142.75;100.00;76003.41;4994719;28;19921;-71
2022/09/08 04:02:43;;;;;;;;;;;;;;;-142.75;100.00;76007.34;4994908;28;19936;-71
2022/09/08 04:05:09;;;;;;;;;;;;;;;-142.75;100.00;76005.38;4995205;28;19921;-71
2022/09/08 04:07:35;;;;;;;;;;;;;;;-142.75;100.00;76007.34;4994085;28;20335;-71
2022/09/08 04:10:01;;;;;;;;;;;;;;;-142.75;100.00;76005.38;4994241;28;19969;-71
2022/09/08 04:12:27;;;;;;;;;;;;;;;-142.75;100.00;75991.59;4993141;28;19921;-71
2022/09/08 04:14:53;;;;;;;;;;;;;;;-142.75;100.00;75989.63;5008756;28;19926;-71
2022/09/08 04:17:19;;;;;;;;;;;;;;;-142.75;100.00;75977.81;4993919;28;20009;-71
2022/09/08 04:19:46;;;;;;;;;;;;;;;-142.75;100.00;75971.91;4994004;28;19918;-71
2022/09/08 04:22:11;;;;;;;;;;;;;;;-142.75;100.00;75969.94;4993328;28;19913;-70
2022/09/08 04:24:36;;;;;;;;;;;;;;;-142.75;100.00;75969.94;4993435;28;20284;-71
2022/09/08 04:27:03;;;;;;;;;;;;;;;-142.75;100.00;75971.91;4992664;28;20216;-71
2022/09/08 04:29:28;;;;;;;;;;;;;;;-142.75;100.00;75967.97;4994550;28;19956;-71
2022/09/08 04:31:54;;;;;;;;;;;;;;;-142.75;100.00;75973.88;4994986;28;20012;-71
2022/09/08 04:34:19;;;;;;;;;;;;;;;-142.75;100.00;75971.91;4994551;28;19914;-70
2022/09/08 04:36:45;;;;;;;;;;;;;;;-142.75;100.00;75991.59;4994970;28;20375;-70
2022/09/08 04:39:11;;;;;;;;;;;;;;;-142.75;100.00;75987.66;4994403;28;19914;-71
2022/09/08 04:41:36;;;;;;;;;;;;;;;-142.75;100.00;75977.81;4995476;28;20252;-71
2022/09/08 04:44:03;;;;;;;;;;;;;;;-142.75;100.00;75979.78;5011083;28;19914;-71
2022/09/08 04:46:29;;;;;;;;;;;;;;;-142.75;100.00;75987.66;4995958;28;19989;-70
2022/09/08 04:48:55;;;;;;;;;;;;;;;-142.75;100.00;75987.66;4993843;28;20028;-71
2022/09/08 04:51:21;;;;;;;;;;;;;;;-142.75;100.00;75983.72;4995682;28;20420;-71
2022/09/08 04:53:46;;;;;;;;;;;;;;;-142.75;100.00;75985.69;4996527;28;19914;-71
2022/09/08 04:56:12;;;;;;;;;;;;;;;-142.75;100.00;75991.59;4995834;28;19914;-70
2022/09/08 04:58:39;;;;;;;;;;;;;;;-142.75;100.00;75995.53;5050944;22;19925;-71
2022/09/08 05:01:04;;;;;;;;;;;;;;;-142.75;100.00;75985.69;5070313;28;19916;-69
2022/09/08 05:03:29;;;;;;;;;;;;;;;-142.75;100.00;75993.56;5071365;28;19913;-70
2022/09/08 05:05:54;;;;;;;;;;;;;;;-142.75;100.00;75993.56;5070582;28;19912;-70
2022/09/08 05:08:19;;;;;;;;;;;;;;;-142.75;100.00;75993.56;5071366;28;19920;-69
2022/09/08 05:10:47;;;;;;;;;;;;;;;-142.75;100.00;75993.56;5071846;28;20008;-70
2022/09/08 05:13:12;;;;;;;;;;;;;;;-142.75;100.00;75991.59;5071868;28;20673;-70
2022/09/08 05:15:37;;;;;;;;;;;;;;;-142.75;100.00;75993.56;5071761;28;19944;-70
2022/09/08 05:18:02;;;;;;;;;;;;;;;-142.75;100.00;76009.31;5071419;28;19965;-69
2022/09/08 05:20:28;;;;;;;;;;;;;;;-142.75;100.00;76007.34;5071682;28;19912;-69
2022/09/08 05:22:53;;;;;;;;;;;;;;;-142.75;100.00;76007.34;5071782;28;19913;-69
2022/09/08 05:25:18;;;;;;;;;;;;;;;-142.75;100.00;76009.31;5071766;28;19956;-69
2022/09/08 05:27:43;;;;;;;;;;;;;;;-142.75;100.00;76003.41;5071243;28;20407;-69
2022/09/08 05:30:09;;;;;;;;;;;;;;;-142.75;100.00;76023.09;5071627;28;19919;-69
2022/09/08 05:32:34;;;;;;;;;;;;;;;-142.75;100.00;76021.13;5071723;28;20004;-69
2022/09/08 05:34:59;;;;;;;;;;;;;;;-142.75;100.00;76021.13;5071578;28;20333;-70
2022/09/08 05:37:26;;;;;;;;;;;;;;;-142.75;100.00;76027.03;5074233;28;20003;-71
2022/09/08 05:39:51;;;;;;;;;;;;;;;-142.75;100.00;76023.09;5073918;28;19912;-70
2022/09/08 05:42:16;;;;;;;;;;;;;;;-142.75;100.00;76019.16;5073961;28;20396;-70
2022/09/08 05:44:41;;;;;;;;;;;;;;;-142.75;100.00;76005.38;5075113;28;19970;-69
2022/09/08 05:47:07;;;;;;;;;;;;;;;-142.75;100.00;76017.19;5073487;28;19970;-70
2022/09/08 05:49:32;;;;;;;;;;;;;;;-142.75;100.00;76015.22;5075059;28;19938;-69
2022/09/08 05:51:57;;;;;;;;;;;;;;;-142.75;100.00;76030.97;5074889;28;20374;-70
2022/09/08 05:54:22;;;;;;;;;;;;;;;-142.75;100.00;76023.09;5073798;28;20565;-69
2022/09/08 05:56:48;;;;;;;;;;;;;;;-142.75;100.00;76030.97;5074605;28;20281;-69
2022/09/08 05:59:13;;;;;;;;;;;;;;;-142.75;100.00;76029.00;5074682;28;19917;-69
2022/09/08 06:01:38;;;;;;;;;;;;;;;-142.75;100.00;76023.09;5074855;28;19916;-70
2022/09/08 06:04:03;;;;;;;;;;;;;;;-142.75;100.00;76042.78;5074856;28;19913;-70
2022/09/08 06:06:29;;;;;;;;;;;;;;;-142.75;100.00;76050.66;5074600;28;19920;-68
2022/09/08 06:08:55;;;;;;;;;;;;;;;-142.75;100.00;76048.69;5074380;28;20344;-69
2022/09/08 06:11:20;;;;;;;;;;;;;;;-142.75;100.00;76058.53;5074760;28;20321;-70
2022/09/08 06:13:46;;;;;;;;;;;;;;;-142.75;100.00;76064.44;5074641;28;20293;-70
2022/09/08 06:16:12;;;;;;;;;;;;;;;-142.75;100.00;76066.41;5074571;28;20461;-71
2022/09/08 06:18:39;;;;;;;;;;;;;;;-142.75;100.00;76066.41;5074199;28;19955;-70
2022/09/08 06:21:23;;;;;;;;;;;;;;;-142.75;100.00;76068.38;5074474;28;20409;-70
2022/09/08 06:23:50;;;;;;;;;;;;;;;-142.75;100.00;76074.25;5074512;28;20019;-70
2022/09/08 06:26:15;;;;;;;;;;;;;;;-142.75;100.00;76076.22;5074464;28;19958;-70
2022/09/08 06:28:50;;;;;;;;;;;;;;;-142.75;100.00;76105.75;5073898;28;19921;-70
2022/09/08 06:31:21;;;;;;;;;;;;;;;-142.75;100.00;76107.72;5074397;28;19939;-70
2022/09/08 06:33:48;;;;;;;;;;;;;;;-142.75;100.00;76101.81;5074280;28;19923;-70
2022/09/08 06:36:15;;;;;;;;;;;;;;;-142.75;100.00;76097.88;5074273;28;19965;-70
2022/09/08 06:38:40;;;;;;;;;;;;;;;-142.75;100.00;76109.69;5073874;28;19955;-70
2022/09/08 06:41:14;;;;;;;;;;;;;;;-142.75;100.00;76105.75;5074138;28;20366;-70
2022/09/08 06:43:46;;;;;;;;;;;;;;;-142.75;100.00;76099.84;5074117;28;20346;-70
2022/09/08 06:46:19;;;;;;;;;;;;;;;-142.75;100.00;76109.69;5073947;28;20439;-70
2022/09/08 06:48:44;;;;;;;;;;;;;;;-142.75;100.00;76107.72;5071695;28;20011;-70
2022/09/08 06:51:28;;;;;;;;;;;;;;;-142.75;100.00;76117.56;5073920;28;19954;-70
2022/09/08 06:54:13;;;;;;;;;;;;;;;-142.75;100.00;76103.78;5073939;28;19912;-69
2022/09/08 06:56:54;;;;;;;;;;;;;;;-142.75;100.00;76093.94;5071135;28;19916;-70
2022/09/08 06:59:24;;;;;;;;;;;;;;;-142.75;100.00;76095.91;5073234;28;19920;-69
2022/09/08 07:01:54;;;;;;;;;;;;;;;-142.75;100.00;76105.75;5067411;28;19924;-68
2022/09/08 07:04:37;;;;;;;;;;;;;;;-142.75;100.00;76099.84;5063312;28;19912;-70
2022/09/08 07:07:05;;;;;;;;;;;;;;;-142.75;100.00;76103.78;5062949;28;19973;-69
2022/09/08 07:09:43;;;;;;;;;;;;;;;-142.75;100.00;76101.81;5061912;28;20015;-70
2022/09/08 07:12:27;;;;;;;;;;;;;;;-142.75;100.00;76099.84;5052566;28;20386;-70
2022/09/08 07:15:08;;;;;;;;;;;;;;;-142.75;100.00;76090.00;5052232;28;20301;-70
2022/09/08 07:17:39;;;;;;;;;;;;;;;-142.75;100.00;76076.22;5053066;28;20533;-68
2022/09/08 07:20:08;;;;;;;;;;;;;;;-142.75;100.00;76076.22;5053452;28;19966;-69
2022/09/08 07:22:46;;;;;;;;;;;;;;;-142.75;100.00;76072.31;5053632;28;19931;-70
2022/09/08 07:25:24;;;;;;;;;;;;;;;-142.75;100.00;76072.31;5061443;28;19975;-69
2022/09/08 07:28:01;;;;;;;;;;;;;;;-142.75;100.00;76060.50;5056796;28;19921;-70
2022/09/08 07:30:26;;;;;;;;;;;;;;;-142.75;100.00;76068.38;5063400;28;19927;-70
2022/09/08 07:32:53;;;;;;;;;;;;;;;-142.75;100.00;76052.63;5053519;28;19924;-68
2022/09/08 07:35:28;;;;;;;;;;;;;;;-142.75;100.00;76046.72;5055832;28;19913;-69
2022/09/08 07:37:56;;;;;;;;;;;;;;;-142.75;100.00;76050.66;5056219;28;20003;-70
2022/09/08 07:40:35;;;;;;;;;;;;;;;-142.75;100.00;76030.97;5064266;28;19912;-69
2022/09/08 07:43:01;;;;;;;;;;;;;;;-142.75;100.00;76032.94;5058581;28;19958;-70
2022/09/08 07:45:35;;;;;;;;;;;;;;;-142.75;100.00;76025.06;5058146;28;19921;-69
2022/09/08 07:48:14;;;;;;;;;;;;;;;-142.75;100.00;76036.88;5061377;28;19920;-70
2022/09/08 07:50:55;;;;;;;;;;;;;;;-142.75;100.00;76005.38;5069841;28;19919;-72
2022/09/08 07:53:20;;;;;;;;;;;;;;;-142.75;100.00;75985.69;5066103;28;19935;-72
2022/09/08 07:55:46;;;;;;;;;;;;;;;-142.75;100.00;75991.59;5056210;28;19917;-70
2022/09/08 07:58:30;;;;;;;;;;;;;;;-142.75;100.00;76001.44;5063751;28;20027;-68
2022/09/08 08:01:10;;;;;;;;;;;;;;;-142.75;100.00;76005.38;5057913;28;19912;-67
2022/09/08 08:03:41;;;;;;;;;;;;;;;-142.75;100.00;75997.50;5056930;28;19912;-69
2022/09/08 08:06:11;;;;;;;;;;;;;;;-142.75;100.00;75979.78;5057638;28;20396;-69
2022/09/08 08:08:39;;;;;;;;;;;;;;;-142.75;100.00;75967.97;5058109;28;19917;-70
2022/09/08 08:11:16;;;;;;;;;;;;;;;-142.75;100.00;75969.94;5062663;28;19913;-70
2022/09/08 08:13:57;;;;;;;;;;;;;;;-142.75;100.00;75940.44;5056489;28;19916;-69
2022/09/08 08:16:28;;;;;;;;;;;;;;;-142.75;100.00;75936.50;5063453;28;19920;-69
2022/09/08 08:18:53;;;;;;;;;;;;;;;-142.75;100.00;75936.50;5059346;28;19912;-69
2022/09/08 08:21:23;;;;;;;;;;;;;;;-142.75;100.00;75926.66;5061945;28;19967;-68
2022/09/08 08:23:51;;;;;;;;;;;;;;;-142.75;100.00;75940.44;5058217;28;20097;-69
2022/09/08 08:26:32;;;;;;;;;;;;;;;-142.75;100.00;75934.53;5059617;28;19919;-68
2022/09/08 08:29:15;;;;;;;;;;;;;;;-142.75;100.00;75918.78;5056485;28;20019;-69
2022/09/08 08:31:45;;;;;;;;;;;;;;;-142.75;100.00;75932.56;5053477;28;20315;-70
2022/09/08 08:34:17;;;;;;;;;;;;;;;-142.75;100.00;75956.19;5057853;28;19923;-70
2022/09/08 08:36:44;;;;;;;;;;;;;;;-142.75;100.00;75979.78;5057974;28;19925;-68
2022/09/08 08:39:13;;;;;;;;;;;;;;;-142.75;100.00;75971.91;5051533;28;19912;-67
2022/09/08 08:41:41;;;;;;;;;;;;;;;-142.75;100.00;75964.03;5055600;28;19955;-70
2022/09/08 08:44:12;;;;;;;;;;;;;;;-142.75;100.00;75973.88;5052193;28;20378;-69
2022/09/08 08:46:44;;;;;;;;;;;;;;;-142.75;100.00;75958.16;5062153;28;20003;-67
2022/09/08 08:49:22;;;;;;;;;;;;;;;-142.75;100.00;75940.44;5070634;28;19971;-68
2022/09/08 08:52:12;;;;;;;;;;;;;;;-142.75;100.00;75964.03;5072067;28;19999;-70
2022/09/08 08:54:47;;;;;;;;;;;;;;;-142.75;100.00;75964.03;5071927;28;20007;-70
2022/09/08 08:57:32;;;;;;;;;;;;;;;-142.75;100.00;75964.03;5051031;28;19952;-71
2022/09/08 08:59:58;;;;;;;;;;;;;;;-142.75;100.00;75971.91;5048940;28;20440;-70
2022/09/08 09:02:42;;;;;;;;;;;;;;;-142.75;100.00;75967.97;5051994;28;19912;-68
2022/09/08 09:05:13;;;;;;;;;;;;;;;-142.75;100.00;75873.50;5050634;28;19913;-70
2022/09/08 09:07:41;;;;;;;;;;;;;;;-142.75;100.00;75779.03;5051309;28;19917;-68
2022/09/08 09:10:06;;;;;;;;;;;;;;;-142.75;100.00;75706.22;5050962;28;19917;-73
2022/09/08 09:12:32;;;;;;;;;;;;;;;-142.75;100.00;75694.41;5063804;28;19939;-68
2022/09/08 09:15:06;;;;;;;;;;;;;;;-142.75;100.00;75637.34;5065581;28;19959;-70
2022/09/08 09:17:34;;;;;;;;;;;;;;;-142.75;100.00;75601.91;5074615;28;19969;-70
2022/09/08 09:20:15;;;;;;;;;;;;;;;-142.75;100.00;75544.84;5074487;28;19944;-70
2022/09/08 09:22:51;;;;;;;;;;;;;;;-142.75;100.00;75523.19;5075720;28;20336;-70
2022/09/08 09:25:25;;;;;;;;;;;;;;;-142.75;100.00;75464.16;5070576;28;20301;-69
2022/09/08 09:27:50;;;;;;;;;;;;;;;-142.75;100.00;75436.59;5064185;28;19967;-71
2022/09/08 09:30:18;;;;;;;;;;;;;;;-142.75;100.00;75487.78;5064645;28;19920;-70
2022/09/08 09:33:03;;;;;;;;;;;;;;;-142.75;100.00;75560.59;5065716;28;20374;-70
2022/09/08 09:35:28;;;;;;;;;;;;;;;-142.75;100.00;75621.59;5065821;28;19913;-69
2022/09/08 09:38:02;;;;;;;;;;;;;;;-142.75;100.00;75684.56;5063985;28;19919;-70
2022/09/08 09:40:40;;;;;;;;;;;;;;;-142.75;100.00;75716.06;5062347;28;19913;-69
2022/09/08 09:43:21;;;;;;;;;;;;;;;-142.75;100.00;75731.81;5063528;28;19956;-69
2022/09/08 09:45:46;;;;;;;;;;;;;;;-142.75;100.00;75747.56;5063636;28;19975;-68
2022/09/08 09:48:28;;;;;;;;;;;;;;;-142.75;100.00;75718.03;5064901;28;20385;-70
2022/09/08 09:50:54;;;;;;;;;;;;;;;-142.75;100.00;75696.38;5063724;28;19919;-69
2022/09/08 09:53:19;;;;;;;;;;;;;;;-142.75;100.00;75741.66;5062899;28;19912;-67
2022/09/08 09:56:15;;;;;;;;;;;;;;;-142.75;100.00;75735.75;5065333;28;20022;-69
2022/09/08 09:59:12;;;;;;;;;;;;;;;-142.75;100.00;75745.59;5064433;28;19916;-69
2022/09/08 10:01:37;;;;;;;;;;;;;;;-142.75;100.00;75729.84;5064441;28;20340;-69
2022/09/08 10:04:06;;;;;;;;;;;;;;;-142.75;100.00;75745.59;5062151;28;19912;-70
2022/09/08 10:06:59;;;;;;;;;;;;;;;-142.75;100.00;75737.72;5063188;28;20374;-68
2022/09/08 10:09:35;;;;;;;;;;;;;;;-142.75;100.00;75720.00;5063810;28;19954;-69
2022/09/08 10:12:04;;;;;;;;;;;;;;;-142.75;100.00;75704.25;5064538;28;19922;-69
2022/09/08 10:14:53;;;;;;;;;;;;;;;-142.75;100.00;75688.50;5061345;28;19920;-69
2022/09/08 10:17:44;;;;;;;;;;;;;;;-142.75;100.00;75609.78;5064027;28;20019;-69
2022/09/08 10:20:12;;;;;;;;;;;;;;;-142.75;100.00;75582.25;5071339;28;19912;-69
2022/09/08 10:22:55;;;;;;;;;;;;;;;-142.75;100.00;75507.47;5073378;28;20362;-69
2022/09/08 10:25:31;;;;;;;;;;;;;;;-142.75;100.00;75515.31;5074487;28;20012;-68
2022/09/08 10:28:15;;;;;;;;;;;;;;;-142.75;100.00;75481.88;5071958;28;20380;-68
2022/09/08 10:30:52;;;;;;;;;;;;;;;-142.75;100.00;75442.50;5073992;28;20298;-69
2022/09/08 10:33:23;;;;;;;;;;;;;;;-142.75;100.00;75507.47;5074244;28;20302;-69
2022/09/08 10:35:52;;;;;;;;;;;;;;;-142.75;100.00;75448.41;5074280;28;19973;-70
2022/09/08 10:38:19;;;;;;;;;;;;;;;-142.75;100.00;75359.88;5072522;28;19919;-70
2022/09/08 10:40:56;;;;;;;;;;;;;;;-142.75;100.00;75322.47;5063900;28;19917;-70
2022/09/08 10:43:37;;;;;;;;;;;;;;;-142.75;100.00;75267.38;5053461;28;19917;-70
2022/09/08 10:46:11;;;;;;;;;;;;;;;-142.75;100.00;75239.81;5054061;28;19916;-69
2022/09/08 10:48:49;;;;;;;;;;;;;;;-142.75;100.00;75265.41;5053601;28;20272;-70
2022/09/08 10:51:14;;;;;;;;;;;;;;;-142.75;100.00;75174.88;5054035;28;19913;-69
2022/09/08 10:53:55;;;;;;;;;;;;;;;-142.75;100.00;75204.41;5053933;28;20011;-69
2022/09/08 10:56:27;;;;;;;;;;;;;;;-142.75;100.00;75180.78;5054243;28;20264;-71
2022/09/08 10:59:27;;;;;;;;;;;;;;;-142.75;100.00;75159.16;5060979;28;19920;-69
2022/09/08 11:01:55;;;;;;;;;;;;;;;-142.75;100.00;75117.81;5019485;28;20457;-69
2022/09/08 11:04:38;;;;;;;;;;;;;;;-142.75;100.00;75119.78;5055970;28;20342;-69
2022/09/08 11:09:44;;;;;;;;;;;;;;;-142.75;100.00;75176.84;5012384;28;19932;-70
2022/09/08 11:12:16;;;;;;;;;;;;;;;-142.75;100.00;75208.34;5026384;28;19925;-72
2022/09/08 11:15:00;;;;;;;;;;;;;;;-142.75;100.00;75214.25;5013409;28;19913;-71
2022/09/08 11:17:27;;;;;;;;;;;;;;;-142.75;100.00;75231.94;5010933;28;19929;-71
2022/09/08 11:20:02;;;;;;;;;;;;;;;-142.75;100.00;75294.94;5013597;28;19913;-71
2022/09/08 11:22:43;;;;;;;;;;;;;;;-142.75;100.00;75330.34;5028967;28;19918;-70
2022/09/08 11:25:17;;;;;;;;;;;;;;;-142.75;100.00;75294.94;5029143;28;19914;-70
2022/09/08 11:28:02;;;;;;;;;;;;;;;-142.75;100.00;75243.75;5030449;28;19953;-70
2022/09/08 11:30:30;;;;;;;;;;;;;;;-142.75;100.00;75133.56;5014172;28;19917;-69
2022/09/08 11:33:02;;;;;;;;;;;;;;;-142.75;100.00;75228.00;5013652;28;19960;-70
2022/09/08 11:35:31;;;;;;;;;;;;;;;-142.75;100.00;75302.78;5012004;28;19914;-70
2022/09/08 11:37:56;;;;;;;;;;;;;;;-142.75;100.00;75328.38;5013157;28;19913;-70
2022/09/08 11:40:28;;;;;;;;;;;;;;;-142.75;100.00;75352.00;5028703;28;19913;-70
2022/09/08 11:43:04;;;;;;;;;;;;;;;-142.75;100.00;75389.38;5013398;28;19913;-69
2022/09/08 11:45:38;;;;;;;;;;;;;;;-142.75;100.00;75306.72;5028768;28;20013;-71
2022/09/08 11:48:04;;;;;;;;;;;;;;;-142.75;100.00;75330.34;5013154;28;19917;-69
2022/09/08 11:50:35;;;;;;;;;;;;;;;-142.75;100.00;75302.78;5013650;28;19920;-70
2022/09/08 11:53:30;;;;;;;;;;;;;;;-142.75;100.00;75247.69;5013127;28;19944;-70
2022/09/08 11:56:01;;;;;;;;;;;;;;;-142.75;100.00;75188.66;4993682;28;19914;-70
2022/09/08 11:58:41;;;;;;;;;;;;;;;-142.75;100.00;75198.50;5012841;28;19914;-71
2022/09/08 12:01:12;;;;;;;;;;;;;;;-142.75;100.00;75247.69;5013183;28;19920;-70
2022/09/08 12:03:56;;;;;;;;;;;;;;;-142.75;100.00;75283.13;5012951;28;19914;-69
2022/09/08 12:06:40;;;;;;;;;;;;;;;-142.75;100.00;75263.44;5012936;28;19920;-69
2022/09/08 12:09:08;;;;;;;;;;;;;;;-142.75;100.00;75208.34;5012784;28;19928;-70
2022/09/08 12:11:46;;;;;;;;;;;;;;;-142.75;100.00;75153.25;5012951;28;19940;-70
2022/09/08 12:14:12;;;;;;;;;;;;;;;-142.75;100.00;75094.22;5012899;28;19920;-70
2022/09/08 12:16:39;;;;;;;;;;;;;;;-142.75;100.00;75062.72;5012120;28;20295;-70
2022/09/08 12:19:23;;;;;;;;;;;;;;;-142.75;100.00;75090.28;5012790;28;19914;-70
2022/09/08 12:21:57;;;;;;;;;;;;;;;-142.75;100.00;75153.25;5012725;28;19914;-71
2022/09/08 12:24:40;;;;;;;;;;;;;;;-142.75;100.00;75161.13;5012704;28;20403;-70
2022/09/08 12:27:24;;;;;;;;;;;;;;;-142.75;100.00;75161.13;5012276;28;19996;-70
2022/09/08 12:29:52;;;;;;;;;;;;;;;-142.75;100.00;75161.13;5012721;28;20008;-69
2022/09/08 12:32:17;;;;;;;;;;;;;;;-142.75;100.00;75192.59;5012568;28;20334;-70
2022/09/08 12:34:42;;;;;;;;;;;;;;;-142.75;100.00;75133.56;5012389;28;19941;-70
2022/09/08 12:37:26;;;;;;;;;;;;;;;-142.75;100.00;75121.75;5012129;28;19914;-70
2022/09/08 12:39:55;;;;;;;;;;;;;;;-142.75;100.00;75064.69;5012534;28;19940;-70
2022/09/08 12:42:29;;;;;;;;;;;;;;;-142.75;100.00;75054.84;5012507;28;19917;-70